sensor_id;sensor_type;location;lat;lon;timestamp;P1;durP1;ratioP1;P2;durP2;ratioP2
63965;SDS011;50151;52.030;5.350;2023-08-20T00:01:17;7.57;;;2.30;;
63965;SDS011;50151;52.030;5.350;2023-08-20T00:03:48;12.25;;;2.30;;
63965;SDS011;50151;52.030;5.350;2023-08-20T00:06:16;5.00;;;2.20;;
63965;SDS011;50151;52.030;5.350;2023-08-20T00:08:43;5.78;;;2.47;;
63965;SDS011;50151;52.030;5.350;2023-08-20T00:11:10;6.65;;;2.38;;
63965;SDS011;50151;52.030;5.350;2023-08-20T00:13:38;13.65;;;2.72;;
63965;SDS011;50151;52.030;5.350;2023-08-20T00:16:06;8.32;;;2.75;;
63965;SDS011;50151;52.030;5.350;2023-08-20T00:18:33;5.72;;;2.28;;
63965;SDS011;50151;52.030;5.350;2023-08-20T00:21:04;9.25;;;2.65;;
63965;SDS011;50151;52.030;5.350;2023-08-20T00:23:31;7.80;;;2.53;;
63965;SDS011;50151;52.030;5.350;2023-08-20T00:25:58;13.93;;;2.63;;
63965;SDS011;50151;52.030;5.350;2023-08-20T00:28:26;7.78;;;2.80;;
63965;SDS011;50151;52.030;5.350;2023-08-20T00:30:52;6.38;;;2.30;;
63965;SDS011;50151;52.030;5.350;2023-08-20T00:33:19;8.68;;;2.67;;
63965;SDS011;50151;52.030;5.350;2023-08-20T00:35:46;13.70;;;3.28;;
63965;SDS011;50151;52.030;5.350;2023-08-20T00:38:13;9.15;;;3.20;;
63965;SDS011;50151;52.030;5.350;2023-08-20T00:40:39;9.90;;;2.85;;
63965;SDS011;50151;52.030;5.350;2023-08-20T00:43:06;7.82;;;3.03;;
63965;SDS011;50151;52.030;5.350;2023-08-20T00:45:33;5.07;;;2.47;;
63965;SDS011;50151;52.030;5.350;2023-08-20T00:48:00;7.38;;;2.80;;
63965;SDS011;50151;52.030;5.350;2023-08-20T00:50:27;9.43;;;2.90;;
63965;SDS011;50151;52.030;5.350;2023-08-20T00:52:54;8.82;;;3.13;;
63965;SDS011;50151;52.030;5.350;2023-08-20T00:55:21;9.27;;;3.13;;
63965;SDS011;50151;52.030;5.350;2023-08-20T00:57:48;7.72;;;2.90;;
63965;SDS011;50151;52.030;5.350;2023-08-20T01:00:15;4.88;;;2.63;;
63965;SDS011;50151;52.030;5.350;2023-08-20T01:02:44;7.75;;;2.63;;
63965;SDS011;50151;52.030;5.350;2023-08-20T01:05:13;10.20;;;3.08;;
63965;SDS011;50151;52.030;5.350;2023-08-20T01:10:40;7.30;;;2.92;;
63965;SDS011;50151;52.030;5.350;2023-08-20T01:13:23;9.68;;;3.13;;
63965;SDS011;50151;52.030;5.350;2023-08-20T01:15:50;8.05;;;2.53;;
63965;SDS011;50151;52.030;5.350;2023-08-20T01:18:17;6.90;;;2.80;;
63965;SDS011;50151;52.030;5.350;2023-08-20T01:20:51;8.85;;;3.13;;
63965;SDS011;50151;52.030;5.350;2023-08-20T01:28:30;6.65;;;2.72;;
63965;SDS011;50151;52.030;5.350;2023-08-20T01:30:58;5.43;;;3.10;;
63965;SDS011;50151;52.030;5.350;2023-08-20T01:33:29;6.88;;;2.67;;
63965;SDS011;50151;52.030;5.350;2023-08-20T01:35:56;8.23;;;3.00;;
63965;SDS011;50151;52.030;5.350;2023-08-20T01:38:23;6.47;;;3.05;;
63965;SDS011;50151;52.030;5.350;2023-08-20T01:40:50;10.57;;;3.28;;
63965;SDS011;50151;52.030;5.350;2023-08-20T01:43:17;8.02;;;3.22;;
63965;SDS011;50151;52.030;5.350;2023-08-20T01:45:44;8.45;;;3.05;;
63965;SDS011;50151;52.030;5.350;2023-08-20T01:48:10;6.88;;;2.92;;
63965;SDS011;50151;52.030;5.350;2023-08-20T01:50:37;7.35;;;2.97;;
63965;SDS011;50151;52.030;5.350;2023-08-20T01:53:04;8.00;;;3.30;;
63965;SDS011;50151;52.030;5.350;2023-08-20T01:55:31;9.75;;;3.53;;
63965;SDS011;50151;52.030;5.350;2023-08-20T01:57:58;7.75;;;2.90;;
63965;SDS011;50151;52.030;5.350;2023-08-20T02:00:25;9.30;;;3.60;;
63965;SDS011;50151;52.030;5.350;2023-08-20T02:02:53;12.23;;;3.45;;
63965;SDS011;50151;52.030;5.350;2023-08-20T02:05:20;9.38;;;3.10;;
63965;SDS011;50151;52.030;5.350;2023-08-20T02:07:47;10.10;;;3.40;;
63965;SDS011;50151;52.030;5.350;2023-08-20T02:10:14;9.07;;;2.88;;
63965;SDS011;50151;52.030;5.350;2023-08-20T02:12:41;5.88;;;2.63;;
63965;SDS011;50151;52.030;5.350;2023-08-20T02:15:08;8.52;;;3.30;;
63965;SDS011;50151;52.030;5.350;2023-08-20T02:17:35;9.65;;;3.65;;
63965;SDS011;50151;52.030;5.350;2023-08-20T02:20:03;4.65;;;2.80;;
63965;SDS011;50151;52.030;5.350;2023-08-20T02:22:30;7.47;;;2.85;;
63965;SDS011;50151;52.030;5.350;2023-08-20T02:24:57;8.13;;;3.17;;
63965;SDS011;50151;52.030;5.350;2023-08-20T02:27:24;5.30;;;3.03;;
63965;SDS011;50151;52.030;5.350;2023-08-20T02:29:51;7.13;;;3.35;;
63965;SDS011;50151;52.030;5.350;2023-08-20T02:32:17;6.53;;;2.92;;
63965;SDS011;50151;52.030;5.350;2023-08-20T02:34:48;9.07;;;3.22;;
63965;SDS011;50151;52.030;5.350;2023-08-20T02:37:16;7.90;;;3.10;;
63965;SDS011;50151;52.030;5.350;2023-08-20T02:39:43;6.97;;;3.40;;
63965;SDS011;50151;52.030;5.350;2023-08-20T02:42:10;8.45;;;3.10;;
63965;SDS011;50151;52.030;5.350;2023-08-20T02:44:37;10.48;;;3.60;;
63965;SDS011;50151;52.030;5.350;2023-08-20T02:47:04;5.63;;;3.60;;
63965;SDS011;50151;52.030;5.350;2023-08-20T02:49:30;7.25;;;3.63;;
63965;SDS011;50151;52.030;5.350;2023-08-20T02:51:57;9.18;;;3.55;;
63965;SDS011;50151;52.030;5.350;2023-08-20T02:54:24;10.35;;;3.97;;
63965;SDS011;50151;52.030;5.350;2023-08-20T02:56:52;11.75;;;3.75;;
63965;SDS011;50151;52.030;5.350;2023-08-20T02:59:19;11.43;;;3.88;;
63965;SDS011;50151;52.030;5.350;2023-08-20T03:01:46;9.45;;;3.30;;
63965;SDS011;50151;52.030;5.350;2023-08-20T03:04:12;7.90;;;3.40;;
63965;SDS011;50151;52.030;5.350;2023-08-20T03:06:39;8.73;;;3.75;;
63965;SDS011;50151;52.030;5.350;2023-08-20T03:09:06;5.63;;;3.20;;
63965;SDS011;50151;52.030;5.350;2023-08-20T03:11:33;8.07;;;3.58;;
63965;SDS011;50151;52.030;5.350;2023-08-20T03:14:00;8.20;;;3.45;;
63965;SDS011;50151;52.030;5.350;2023-08-20T03:16:26;8.45;;;3.15;;
63965;SDS011;50151;52.030;5.350;2023-08-20T03:18:53;5.93;;;3.40;;
63965;SDS011;50151;52.030;5.350;2023-08-20T03:21:20;6.32;;;3.10;;
63965;SDS011;50151;52.030;5.350;2023-08-20T03:23:47;8.90;;;3.55;;
63965;SDS011;50151;52.030;5.350;2023-08-20T03:26:13;9.40;;;3.30;;
63965;SDS011;50151;52.030;5.350;2023-08-20T03:28:40;5.72;;;2.90;;
63965;SDS011;50151;52.030;5.350;2023-08-20T03:31:07;7.30;;;3.10;;
63965;SDS011;50151;52.030;5.350;2023-08-20T03:33:33;5.38;;;2.80;;
63965;SDS011;50151;52.030;5.350;2023-08-20T03:36:00;9.60;;;3.10;;
63965;SDS011;50151;52.030;5.350;2023-08-20T03:38:27;5.97;;;3.13;;
63965;SDS011;50151;52.030;5.350;2023-08-20T03:40:54;7.85;;;2.90;;
63965;SDS011;50151;52.030;5.350;2023-08-20T03:43:21;6.88;;;3.17;;
63965;SDS011;50151;52.030;5.350;2023-08-20T03:45:51;4.90;;;2.90;;
63965;SDS011;50151;52.030;5.350;2023-08-20T03:48:18;5.50;;;3.20;;
63965;SDS011;50151;52.030;5.350;2023-08-20T03:50:46;6.15;;;3.17;;
63965;SDS011;50151;52.030;5.350;2023-08-20T03:53:13;7.88;;;3.13;;
63965;SDS011;50151;52.030;5.350;2023-08-20T03:55:40;7.15;;;3.30;;
63965;SDS011;50151;52.030;5.350;2023-08-20T03:58:07;6.25;;;3.20;;
63965;SDS011;50151;52.030;5.350;2023-08-20T04:00:34;5.47;;;3.33;;
63965;SDS011;50151;52.030;5.350;2023-08-20T04:03:01;5.15;;;3.10;;
63965;SDS011;50151;52.030;5.350;2023-08-20T04:05:28;6.28;;;2.88;;
63965;SDS011;50151;52.030;5.350;2023-08-20T04:07:55;8.57;;;3.30;;
63965;SDS011;50151;52.030;5.350;2023-08-20T04:10:22;11.10;;;3.83;;
63965;SDS011;50151;52.030;5.350;2023-08-20T04:12:49;10.60;;;3.47;;
63965;SDS011;50151;52.030;5.350;2023-08-20T04:15:15;6.00;;;3.13;;
63965;SDS011;50151;52.030;5.350;2023-08-20T04:17:42;5.97;;;3.40;;
63965;SDS011;50151;52.030;5.350;2023-08-20T04:20:09;8.07;;;3.33;;
63965;SDS011;50151;52.030;5.350;2023-08-20T04:22:36;6.75;;;3.45;;
63965;SDS011;50151;52.030;5.350;2023-08-20T04:25:04;6.53;;;3.13;;
63965;SDS011;50151;52.030;5.350;2023-08-20T04:27:32;7.38;;;4.40;;
63965;SDS011;50151;52.030;5.350;2023-08-20T04:29:59;6.45;;;3.30;;
63965;SDS011;50151;52.030;5.350;2023-08-20T04:32:26;7.65;;;3.30;;
63965;SDS011;50151;52.030;5.350;2023-08-20T04:34:53;7.10;;;3.20;;
63965;SDS011;50151;52.030;5.350;2023-08-20T04:37:20;7.90;;;3.30;;
63965;SDS011;50151;52.030;5.350;2023-08-20T04:39:47;8.52;;;3.40;;
63965;SDS011;50151;52.030;5.350;2023-08-20T04:42:15;6.00;;;3.25;;
63965;SDS011;50151;52.030;5.350;2023-08-20T04:44:41;8.02;;;3.50;;
63965;SDS011;50151;52.030;5.350;2023-08-20T04:47:11;6.63;;;3.10;;
63965;SDS011;50151;52.030;5.350;2023-08-20T04:49:39;7.97;;;3.15;;
63965;SDS011;50151;52.030;5.350;2023-08-20T04:52:06;5.72;;;3.28;;
63965;SDS011;50151;52.030;5.350;2023-08-20T04:54:33;8.60;;;3.33;;
63965;SDS011;50151;52.030;5.350;2023-08-20T04:56:59;5.72;;;3.17;;
63965;SDS011;50151;52.030;5.350;2023-08-20T04:59:26;9.20;;;3.15;;
63965;SDS011;50151;52.030;5.350;2023-08-20T05:01:53;10.18;;;3.20;;
63965;SDS011;50151;52.030;5.350;2023-08-20T05:04:20;6.32;;;3.30;;
63965;SDS011;50151;52.030;5.350;2023-08-20T05:06:47;10.75;;;3.88;;
63965;SDS011;50151;52.030;5.350;2023-08-20T05:09:14;6.15;;;3.03;;
63965;SDS011;50151;52.030;5.350;2023-08-20T05:11:42;7.43;;;3.30;;
63965;SDS011;50151;52.030;5.350;2023-08-20T05:14:08;7.93;;;3.25;;
63965;SDS011;50151;52.030;5.350;2023-08-20T05:16:35;9.98;;;3.17;;
63965;SDS011;50151;52.030;5.350;2023-08-20T05:19:02;7.10;;;3.53;;
63965;SDS011;50151;52.030;5.350;2023-08-20T05:21:29;6.72;;;3.05;;
63965;SDS011;50151;52.030;5.350;2023-08-20T05:23:56;7.00;;;2.80;;
63965;SDS011;50151;52.030;5.350;2023-08-20T05:26:23;7.72;;;2.92;;
63965;SDS011;50151;52.030;5.350;2023-08-20T05:28:49;6.72;;;3.28;;
63965;SDS011;50151;52.030;5.350;2023-08-20T05:31:16;6.38;;;2.65;;
63965;SDS011;50151;52.030;5.350;2023-08-20T05:33:43;8.80;;;3.22;;
63965;SDS011;50151;52.030;5.350;2023-08-20T05:36:09;6.18;;;2.97;;
63965;SDS011;50151;52.030;5.350;2023-08-20T05:38:36;7.55;;;3.00;;
63965;SDS011;50151;52.030;5.350;2023-08-20T05:41:03;5.72;;;2.58;;
63965;SDS011;50151;52.030;5.350;2023-08-20T05:43:29;10.32;;;3.20;;
63965;SDS011;50151;52.030;5.350;2023-08-20T05:45:56;7.20;;;3.33;;
63965;SDS011;50151;52.030;5.350;2023-08-20T05:48:23;10.00;;;2.80;;
63965;SDS011;50151;52.030;5.350;2023-08-20T05:50:50;7.32;;;2.60;;
63965;SDS011;50151;52.030;5.350;2023-08-20T05:53:16;5.82;;;2.83;;
63965;SDS011;50151;52.030;5.350;2023-08-20T05:55:43;10.20;;;3.22;;
63965;SDS011;50151;52.030;5.350;2023-08-20T05:58:10;8.10;;;3.35;;
63965;SDS011;50151;52.030;5.350;2023-08-20T06:00:37;6.47;;;2.75;;
63965;SDS011;50151;52.030;5.350;2023-08-20T06:03:04;6.00;;;2.67;;
63965;SDS011;50151;52.030;5.350;2023-08-20T06:05:31;9.95;;;2.80;;
63965;SDS011;50151;52.030;5.350;2023-08-20T06:07:58;8.68;;;3.00;;
63965;SDS011;50151;52.030;5.350;2023-08-20T06:10:24;8.23;;;2.90;;
63965;SDS011;50151;52.030;5.350;2023-08-20T06:12:51;6.38;;;2.75;;
63965;SDS011;50151;52.030;5.350;2023-08-20T06:15:18;6.97;;;2.88;;
63965;SDS011;50151;52.030;5.350;2023-08-20T06:17:45;8.93;;;2.60;;
63965;SDS011;50151;52.030;5.350;2023-08-20T06:20:11;6.47;;;3.00;;
63965;SDS011;50151;52.030;5.350;2023-08-20T06:22:38;10.57;;;3.28;;
63965;SDS011;50151;52.030;5.350;2023-08-20T06:25:05;7.50;;;3.20;;
63965;SDS011;50151;52.030;5.350;2023-08-20T06:27:32;8.45;;;3.53;;
63965;SDS011;50151;52.030;5.350;2023-08-20T06:30:01;9.35;;;3.38;;
63965;SDS011;50151;52.030;5.350;2023-08-20T06:32:27;8.35;;;3.45;;
63965;SDS011;50151;52.030;5.350;2023-08-20T06:34:54;12.57;;;3.60;;
63965;SDS011;50151;52.030;5.350;2023-08-20T06:37:21;11.70;;;3.40;;
63965;SDS011;50151;52.030;5.350;2023-08-20T06:39:48;12.75;;;3.50;;
63965;SDS011;50151;52.030;5.350;2023-08-20T06:42:15;10.15;;;3.63;;
63965;SDS011;50151;52.030;5.350;2023-08-20T06:44:41;15.25;;;3.72;;
63965;SDS011;50151;52.030;5.350;2023-08-20T06:47:08;17.33;;;3.60;;
63965;SDS011;50151;52.030;5.350;2023-08-20T06:49:35;13.80;;;3.08;;
63965;SDS011;50151;52.030;5.350;2023-08-20T06:52:02;11.20;;;3.10;;
63965;SDS011;50151;52.030;5.350;2023-08-20T06:54:29;10.93;;;2.92;;
63965;SDS011;50151;52.030;5.350;2023-08-20T06:56:55;7.05;;;2.70;;
63965;SDS011;50151;52.030;5.350;2023-08-20T06:59:23;7.50;;;2.90;;
63965;SDS011;50151;52.030;5.350;2023-08-20T07:01:50;14.00;;;2.88;;
63965;SDS011;50151;52.030;5.350;2023-08-20T07:04:16;12.05;;;2.88;;
63965;SDS011;50151;52.030;5.350;2023-08-20T07:06:43;9.82;;;2.50;;
63965;SDS011;50151;52.030;5.350;2023-08-20T07:09:10;8.50;;;2.60;;
63965;SDS011;50151;52.030;5.350;2023-08-20T07:11:37;10.95;;;2.42;;
63965;SDS011;50151;52.030;5.350;2023-08-20T07:14:03;10.05;;;2.10;;
63965;SDS011;50151;52.030;5.350;2023-08-20T07:16:30;12.40;;;2.80;;
63965;SDS011;50151;52.030;5.350;2023-08-20T07:18:58;8.68;;;2.17;;
63965;SDS011;50151;52.030;5.350;2023-08-20T07:21:24;9.77;;;2.20;;
63965;SDS011;50151;52.030;5.350;2023-08-20T07:23:51;9.52;;;2.20;;
63965;SDS011;50151;52.030;5.350;2023-08-20T07:26:18;11.52;;;1.98;;
63965;SDS011;50151;52.030;5.350;2023-08-20T07:28:45;10.70;;;1.85;;
63965;SDS011;50151;52.030;5.350;2023-08-20T07:31:27;12.07;;;2.20;;
63965;SDS011;50151;52.030;5.350;2023-08-20T07:33:57;6.70;;;1.77;;
63965;SDS011;50151;52.030;5.350;2023-08-20T07:36:30;12.95;;;2.10;;
63965;SDS011;50151;52.030;5.350;2023-08-20T07:38:58;11.60;;;2.22;;
63965;SDS011;50151;52.030;5.350;2023-08-20T07:41:28;11.75;;;2.03;;
63965;SDS011;50151;52.030;5.350;2023-08-20T07:43:54;9.90;;;1.85;;
63965;SDS011;50151;52.030;5.350;2023-08-20T07:46:21;10.68;;;2.05;;
63965;SDS011;50151;52.030;5.350;2023-08-20T07:48:48;9.48;;;2.08;;
63965;SDS011;50151;52.030;5.350;2023-08-20T07:51:15;17.10;;;2.40;;
63965;SDS011;50151;52.030;5.350;2023-08-20T07:53:42;13.32;;;1.88;;
63965;SDS011;50151;52.030;5.350;2023-08-20T07:56:08;9.95;;;2.20;;
63965;SDS011;50151;52.030;5.350;2023-08-20T07:58:35;10.38;;;2.00;;
63965;SDS011;50151;52.030;5.350;2023-08-20T08:01:02;10.30;;;2.15;;
63965;SDS011;50151;52.030;5.350;2023-08-20T08:03:29;11.18;;;2.25;;
63965;SDS011;50151;52.030;5.350;2023-08-20T08:05:56;10.00;;;2.10;;
63965;SDS011;50151;52.030;5.350;2023-08-20T08:08:23;9.27;;;2.08;;
63965;SDS011;50151;52.030;5.350;2023-08-20T08:10:50;10.80;;;1.95;;
63965;SDS011;50151;52.030;5.350;2023-08-20T08:13:21;16.27;;;2.28;;
63965;SDS011;50151;52.030;5.350;2023-08-20T08:15:49;7.82;;;1.70;;
63965;SDS011;50151;52.030;5.350;2023-08-20T08:18:20;9.43;;;1.45;;
63965;SDS011;50151;52.030;5.350;2023-08-20T08:20:49;8.88;;;1.75;;
63965;SDS011;50151;52.030;5.350;2023-08-20T08:23:15;9.43;;;1.80;;
63965;SDS011;50151;52.030;5.350;2023-08-20T08:25:42;9.23;;;1.60;;
63965;SDS011;50151;52.030;5.350;2023-08-20T08:28:09;9.25;;;1.77;;
63965;SDS011;50151;52.030;5.350;2023-08-20T08:30:36;6.20;;;1.40;;
63965;SDS011;50151;52.030;5.350;2023-08-20T08:33:03;10.00;;;1.80;;
63965;SDS011;50151;52.030;5.350;2023-08-20T08:35:30;5.18;;;1.27;;
63965;SDS011;50151;52.030;5.350;2023-08-20T08:37:57;6.68;;;1.75;;
63965;SDS011;50151;52.030;5.350;2023-08-20T08:40:26;5.22;;;1.40;;
63965;SDS011;50151;52.030;5.350;2023-08-20T08:42:55;9.38;;;1.63;;
63965;SDS011;50151;52.030;5.350;2023-08-20T08:45:22;7.00;;;1.63;;
63965;SDS011;50151;52.030;5.350;2023-08-20T08:47:49;10.18;;;1.45;;
63965;SDS011;50151;52.030;5.350;2023-08-20T08:50:20;6.47;;;1.05;;
63965;SDS011;50151;52.030;5.350;2023-08-20T08:52:47;10.25;;;1.60;;
63965;SDS011;50151;52.030;5.350;2023-08-20T08:55:19;5.35;;;1.45;;
63965;SDS011;50151;52.030;5.350;2023-08-20T08:57:46;7.45;;;1.40;;
63965;SDS011;50151;52.030;5.350;2023-08-20T09:00:13;6.60;;;1.60;;
63965;SDS011;50151;52.030;5.350;2023-08-20T09:02:40;9.25;;;1.70;;
63965;SDS011;50151;52.030;5.350;2023-08-20T09:05:07;9.27;;;1.90;;
63965;SDS011;50151;52.030;5.350;2023-08-20T09:07:34;8.18;;;1.92;;
63965;SDS011;50151;52.030;5.350;2023-08-20T09:10:00;11.77;;;1.70;;
63965;SDS011;50151;52.030;5.350;2023-08-20T09:12:27;8.77;;;1.45;;
63965;SDS011;50151;52.030;5.350;2023-08-20T09:14:54;8.07;;;1.50;;
63965;SDS011;50151;52.030;5.350;2023-08-20T09:17:27;6.05;;;1.40;;
63965;SDS011;50151;52.030;5.350;2023-08-20T09:19:55;7.90;;;1.48;;
63965;SDS011;50151;52.030;5.350;2023-08-20T09:22:23;8.35;;;1.30;;
63965;SDS011;50151;52.030;5.350;2023-08-20T09:24:54;3.90;;;1.10;;
63965;SDS011;50151;52.030;5.350;2023-08-20T09:27:22;7.28;;;1.20;;
63965;SDS011;50151;52.030;5.350;2023-08-20T09:29:53;6.15;;;1.30;;
63965;SDS011;50151;52.030;5.350;2023-08-20T09:32:22;7.22;;;1.40;;
63965;SDS011;50151;52.030;5.350;2023-08-20T09:34:53;5.60;;;1.10;;
63965;SDS011;50151;52.030;5.350;2023-08-20T09:37:22;6.60;;;1.08;;
63965;SDS011;50151;52.030;5.350;2023-08-20T09:39:49;5.20;;;1.23;;
63965;SDS011;50151;52.030;5.350;2023-08-20T09:42:16;9.18;;;1.27;;
63965;SDS011;50151;52.030;5.350;2023-08-20T09:44:45;6.47;;;1.50;;
63965;SDS011;50151;52.030;5.350;2023-08-20T09:47:16;5.00;;;1.20;;
63965;SDS011;50151;52.030;5.350;2023-08-20T09:49:45;6.50;;;1.35;;
63965;SDS011;50151;52.030;5.350;2023-08-20T09:52:17;7.25;;;1.38;;
63965;SDS011;50151;52.030;5.350;2023-08-20T09:54:55;7.68;;;1.33;;
63965;SDS011;50151;52.030;5.350;2023-08-20T09:57:33;6.28;;;1.10;;
63965;SDS011;50151;52.030;5.350;2023-08-20T10:00:02;5.05;;;1.20;;
63965;SDS011;50151;52.030;5.350;2023-08-20T10:02:32;3.95;;;1.20;;
63965;SDS011;50151;52.030;5.350;2023-08-20T10:05:00;5.72;;;1.10;;
63965;SDS011;50151;52.030;5.350;2023-08-20T10:07:28;6.38;;;1.27;;
63965;SDS011;50151;52.030;5.350;2023-08-20T10:10:00;4.40;;;1.13;;
63965;SDS011;50151;52.030;5.350;2023-08-20T10:12:29;6.13;;;1.17;;
63965;SDS011;50151;52.030;5.350;2023-08-20T10:14:57;7.10;;;1.35;;
63965;SDS011;50151;52.030;5.350;2023-08-20T10:17:25;4.45;;;1.00;;
63965;SDS011;50151;52.030;5.350;2023-08-20T10:19:57;6.20;;;1.30;;
63965;SDS011;50151;52.030;5.350;2023-08-20T10:22:32;7.75;;;1.30;;
63965;SDS011;50151;52.030;5.350;2023-08-20T10:25:02;5.63;;;1.08;;
63965;SDS011;50151;52.030;5.350;2023-08-20T10:27:33;4.88;;;1.00;;
63965;SDS011;50151;52.030;5.350;2023-08-20T10:30:02;4.70;;;0.82;;
63965;SDS011;50151;52.030;5.350;2023-08-20T10:32:51;4.35;;;0.80;;
63965;SDS011;50151;52.030;5.350;2023-08-20T10:35:26;4.78;;;0.93;;
63965;SDS011;50151;52.030;5.350;2023-08-20T10:38:00;5.40;;;0.80;;
63965;SDS011;50151;52.030;5.350;2023-08-20T10:43:26;5.28;;;1.10;;
63965;SDS011;50151;52.030;5.350;2023-08-20T10:48:41;4.30;;;0.98;;
63965;SDS011;50151;52.030;5.350;2023-08-20T10:51:12;4.57;;;0.80;;
63965;SDS011;50151;52.030;5.350;2023-08-20T10:54:05;5.30;;;0.93;;
63965;SDS011;50151;52.030;5.350;2023-08-20T10:59:17;4.18;;;0.90;;
63965;SDS011;50151;52.030;5.350;2023-08-20T11:01:57;5.80;;;1.15;;
63965;SDS011;50151;52.030;5.350;2023-08-20T11:04:27;6.90;;;0.90;;
63965;SDS011;50151;52.030;5.350;2023-08-20T11:06:58;3.53;;;0.70;;
63965;SDS011;50151;52.030;5.350;2023-08-20T11:09:27;5.07;;;0.90;;
63965;SDS011;50151;52.030;5.350;2023-08-20T11:11:55;3.72;;;0.90;;
63965;SDS011;50151;52.030;5.350;2023-08-20T11:14:23;2.80;;;0.90;;
63965;SDS011;50151;52.030;5.350;2023-08-20T11:16:50;3.78;;;0.85;;
63965;SDS011;50151;52.030;5.350;2023-08-20T11:19:21;4.10;;;0.93;;
63965;SDS011;50151;52.030;5.350;2023-08-20T11:21:49;5.50;;;0.95;;
63965;SDS011;50151;52.030;5.350;2023-08-20T11:24:17;5.45;;;0.98;;
63965;SDS011;50151;52.030;5.350;2023-08-20T11:26:45;3.72;;;1.10;;
63965;SDS011;50151;52.030;5.350;2023-08-20T11:29:13;3.97;;;1.00;;
63965;SDS011;50151;52.030;5.350;2023-08-20T11:31:48;9.07;;;1.10;;
63965;SDS011;50151;52.030;5.350;2023-08-20T11:34:16;6.20;;;0.95;;
63965;SDS011;50151;52.030;5.350;2023-08-20T11:36:44;4.63;;;0.77;;
63965;SDS011;50151;52.030;5.350;2023-08-20T11:39:11;4.63;;;1.13;;
63965;SDS011;50151;52.030;5.350;2023-08-20T11:41:39;5.63;;;1.08;;
63965;SDS011;50151;52.030;5.350;2023-08-20T11:44:10;5.07;;;0.98;;
63965;SDS011;50151;52.030;5.350;2023-08-20T11:46:43;6.30;;;1.00;;
63965;SDS011;50151;52.030;5.350;2023-08-20T11:49:11;4.22;;;0.80;;
63965;SDS011;50151;52.030;5.350;2023-08-20T11:51:40;4.07;;;0.93;;
63965;SDS011;50151;52.030;5.350;2023-08-20T11:54:14;3.22;;;0.80;;
63965;SDS011;50151;52.030;5.350;2023-08-20T11:56:46;6.35;;;0.70;;
63965;SDS011;50151;52.030;5.350;2023-08-20T11:59:14;5.45;;;1.10;;
63965;SDS011;50151;52.030;5.350;2023-08-20T12:01:41;5.10;;;0.90;;
63965;SDS011;50151;52.030;5.350;2023-08-20T12:04:09;4.10;;;0.80;;
63965;SDS011;50151;52.030;5.350;2023-08-20T12:06:37;7.90;;;1.00;;
63965;SDS011;50151;52.030;5.350;2023-08-20T12:09:24;3.78;;;0.80;;
63965;SDS011;50151;52.030;5.350;2023-08-20T12:11:51;3.28;;;0.70;;
63965;SDS011;50151;52.030;5.350;2023-08-20T12:14:19;4.13;;;0.80;;
63965;SDS011;50151;52.030;5.350;2023-08-20T12:16:46;2.40;;;0.82;;
63965;SDS011;50151;52.030;5.350;2023-08-20T12:19:13;3.15;;;0.75;;
63965;SDS011;50151;52.030;5.350;2023-08-20T12:21:40;4.47;;;1.00;;
63965;SDS011;50151;52.030;5.350;2023-08-20T12:24:08;8.25;;;1.23;;
63965;SDS011;50151;52.030;5.350;2023-08-20T12:26:36;3.88;;;1.00;;
63965;SDS011;50151;52.030;5.350;2023-08-20T12:29:03;4.68;;;0.82;;
63965;SDS011;50151;52.030;5.350;2023-08-20T12:31:30;4.20;;;1.00;;
63965;SDS011;50151;52.030;5.350;2023-08-20T12:33:58;3.15;;;1.00;;
63965;SDS011;50151;52.030;5.350;2023-08-20T12:36:25;2.83;;;0.75;;
63965;SDS011;50151;52.030;5.350;2023-08-20T12:38:52;5.13;;;1.02;;
63965;SDS011;50151;52.030;5.350;2023-08-20T12:41:19;4.75;;;1.15;;
63965;SDS011;50151;52.030;5.350;2023-08-20T12:43:46;3.60;;;0.80;;
63965;SDS011;50151;52.030;5.350;2023-08-20T12:46:13;8.88;;;1.00;;
63965;SDS011;50151;52.030;5.350;2023-08-20T12:48:40;3.08;;;0.80;;
63965;SDS011;50151;52.030;5.350;2023-08-20T12:51:07;4.03;;;0.80;;
63965;SDS011;50151;52.030;5.350;2023-08-20T12:53:34;4.97;;;1.15;;
63965;SDS011;50151;52.030;5.350;2023-08-20T12:56:04;5.28;;;0.85;;
63965;SDS011;50151;52.030;5.350;2023-08-20T12:58:31;4.45;;;0.98;;
63965;SDS011;50151;52.030;5.350;2023-08-20T13:00:58;4.90;;;0.82;;
63965;SDS011;50151;52.030;5.350;2023-08-20T13:03:25;4.07;;;1.10;;
63965;SDS011;50151;52.030;5.350;2023-08-20T13:05:52;4.22;;;1.02;;
63965;SDS011;50151;52.030;5.350;2023-08-20T13:08:19;4.18;;;1.00;;
63965;SDS011;50151;52.030;5.350;2023-08-20T13:10:49;4.28;;;1.10;;
63965;SDS011;50151;52.030;5.350;2023-08-20T13:13:19;5.30;;;0.90;;
63965;SDS011;50151;52.030;5.350;2023-08-20T13:15:48;5.50;;;1.10;;
63965;SDS011;50151;52.030;5.350;2023-08-20T13:18:17;5.65;;;0.98;;
63965;SDS011;50151;52.030;5.350;2023-08-20T13:20:44;3.60;;;0.90;;
63965;SDS011;50151;52.030;5.350;2023-08-20T13:23:11;4.03;;;1.00;;
63965;SDS011;50151;52.030;5.350;2023-08-20T13:25:38;5.50;;;1.20;;
63965;SDS011;50151;52.030;5.350;2023-08-20T13:28:05;5.50;;;1.10;;
63965;SDS011;50151;52.030;5.350;2023-08-20T13:30:31;4.63;;;1.05;;
63965;SDS011;50151;52.030;5.350;2023-08-20T13:32:59;8.05;;;1.00;;
63965;SDS011;50151;52.030;5.350;2023-08-20T13:35:27;5.53;;;1.25;;
63965;SDS011;50151;52.030;5.350;2023-08-20T13:37:54;9.00;;;1.20;;
63965;SDS011;50151;52.030;5.350;2023-08-20T13:40:20;7.38;;;0.98;;
63965;SDS011;50151;52.030;5.350;2023-08-20T13:42:47;6.25;;;1.27;;
63965;SDS011;50151;52.030;5.350;2023-08-20T13:45:14;3.83;;;0.82;;
63965;SDS011;50151;52.030;5.350;2023-08-20T13:47:41;5.22;;;1.20;;
63965;SDS011;50151;52.030;5.350;2023-08-20T13:50:12;7.30;;;1.25;;
63965;SDS011;50151;52.030;5.350;2023-08-20T13:52:39;5.72;;;1.20;;
63965;SDS011;50151;52.030;5.350;2023-08-20T13:55:06;7.07;;;1.00;;
63965;SDS011;50151;52.030;5.350;2023-08-20T13:57:34;7.97;;;1.30;;
63965;SDS011;50151;52.030;5.350;2023-08-20T14:00:01;4.47;;;0.98;;
63965;SDS011;50151;52.030;5.350;2023-08-20T14:02:33;5.97;;;1.10;;
63965;SDS011;50151;52.030;5.350;2023-08-20T14:05:01;6.53;;;1.17;;
63965;SDS011;50151;52.030;5.350;2023-08-20T14:07:30;7.05;;;1.35;;
63965;SDS011;50151;52.030;5.350;2023-08-20T14:09:58;5.78;;;1.30;;
63965;SDS011;50151;52.030;5.350;2023-08-20T14:12:26;6.63;;;1.02;;
63965;SDS011;50151;52.030;5.350;2023-08-20T14:14:52;4.28;;;1.02;;
63965;SDS011;50151;52.030;5.350;2023-08-20T14:17:19;6.30;;;1.20;;
63965;SDS011;50151;52.030;5.350;2023-08-20T14:19:46;8.35;;;1.35;;
63965;SDS011;50151;52.030;5.350;2023-08-20T14:22:13;5.70;;;1.25;;
63965;SDS011;50151;52.030;5.350;2023-08-20T14:24:39;3.72;;;1.13;;
63965;SDS011;50151;52.030;5.350;2023-08-20T14:27:06;8.70;;;1.48;;
63965;SDS011;50151;52.030;5.350;2023-08-20T14:29:36;4.55;;;1.00;;
63965;SDS011;50151;52.030;5.350;2023-08-20T14:32:03;5.10;;;1.10;;
63965;SDS011;50151;52.030;5.350;2023-08-20T14:34:30;7.18;;;1.42;;
63965;SDS011;50151;52.030;5.350;2023-08-20T14:36:57;10.10;;;1.52;;
63965;SDS011;50151;52.030;5.350;2023-08-20T14:39:23;7.63;;;1.25;;
63965;SDS011;50151;52.030;5.350;2023-08-20T14:41:50;6.53;;;1.30;;
63965;SDS011;50151;52.030;5.350;2023-08-20T14:44:17;3.20;;;0.85;;
63965;SDS011;50151;52.030;5.350;2023-08-20T14:46:44;4.47;;;1.30;;
63965;SDS011;50151;52.030;5.350;2023-08-20T14:49:11;4.88;;;1.13;;
63965;SDS011;50151;52.030;5.350;2023-08-20T14:51:37;4.13;;;1.10;;
63965;SDS011;50151;52.030;5.350;2023-08-20T14:54:04;6.50;;;1.13;;
63965;SDS011;50151;52.030;5.350;2023-08-20T14:56:31;6.45;;;1.48;;
63965;SDS011;50151;52.030;5.350;2023-08-20T14:58:58;5.13;;;1.20;;
63965;SDS011;50151;52.030;5.350;2023-08-20T15:01:31;6.53;;;1.23;;
63965;SDS011;50151;52.030;5.350;2023-08-20T15:03:58;6.35;;;1.40;;
63965;SDS011;50151;52.030;5.350;2023-08-20T15:06:25;3.92;;;1.08;;